sensor_id;sensor_type;location;lat;lon;timestamp;pressure;altitude;pressure_sealevel;temperature;humidity
84413;BME280;74611;53.106;8.778;2024-03-07T00:01:23;102979.22;;;2.01;81.23
84413;BME280;74611;53.106;8.778;2024-03-07T00:03:52;102984.25;;;2.05;82.48
84413;BME280;74611;53.106;8.778;2024-03-07T00:06:17;102982.41;;;2.07;82.33
84413;BME280;74611;53.106;8.778;2024-03-07T00:08:43;102983.41;;;2.05;81.47
84413;BME280;74611;53.106;8.778;2024-03-07T00:11:09;102981.94;;;1.99;82.13
84413;BME280;74611;53.106;8.778;2024-03-07T00:13:35;102985.91;;;1.91;81.85
84413;BME280;74611;53.106;8.778;2024-03-07T00:16:01;102986.97;;;1.70;82.46
84413;BME280;74611;53.106;8.778;2024-03-07T00:18:27;102994.91;;;1.70;82.19
84413;BME280;74611;53.106;8.778;2024-03-07T00:20:52;102997.00;;;1.63;82.82
84413;BME280;74611;53.106;8.778;2024-03-07T00:23:20;102985.16;;;1.70;81.68
84413;BME280;74611;53.106;8.778;2024-03-07T00:25:46;102988.09;;;1.64;82.13
84413;BME280;74611;53.106;8.778;2024-03-07T00:28:15;102991.63;;;1.65;82.04
84413;BME280;74611;53.106;8.778;2024-03-07T00:30:43;102996.50;;;1.36;83.35
84413;BME280;74611;53.106;8.778;2024-03-07T00:39:06;102992.56;;;1.45;82.10
84413;BME280;74611;53.106;8.778;2024-03-07T00:41:33;102996.13;;;1.44;82.78
84413;BME280;74611;53.106;8.778;2024-03-07T00:43:59;102995.72;;;1.34;82.97
84413;BME280;74611;53.106;8.778;2024-03-07T00:46:26;102994.56;;;1.40;83.05
84413;BME280;74611;53.106;8.778;2024-03-07T00:48:52;102993.09;;;1.34;83.22
84413;BME280;74611;53.106;8.778;2024-03-07T00:51:17;102992.53;;;1.28;82.97
84413;BME280;74611;53.106;8.778;2024-03-07T00:53:43;102988.88;;;1.30;83.03
84413;BME280;74611;53.106;8.778;2024-03-07T00:56:09;102994.72;;;1.18;83.68
84413;BME280;74611;53.106;8.778;2024-03-07T01:01:04;102977.44;;;1.11;83.33
84413;BME280;74611;53.106;8.778;2024-03-07T01:03:30;102971.88;;;0.99;84.64
84413;BME280;74611;53.106;8.778;2024-03-07T01:05:55;102971.94;;;1.16;84.01
84413;BME280;74611;53.106;8.778;2024-03-07T01:08:24;102977.75;;;1.24;83.03
84413;BME280;74611;53.106;8.778;2024-03-07T01:10:49;102972.00;;;1.33;82.62
84413;BME280;74611;53.106;8.778;2024-03-07T01:13:15;102976.94;;;1.22;82.82
84413;BME280;74611;53.106;8.778;2024-03-07T01:15:45;102979.38;;;1.08;83.42
84413;BME280;74611;53.106;8.778;2024-03-07T01:18:11;102972.09;;;1.13;83.18
84413;BME280;74611;53.106;8.778;2024-03-07T01:20:38;102973.09;;;0.92;83.77
84413;BME280;74611;53.106;8.778;2024-03-07T01:23:03;102975.19;;;1.04;83.61
84413;BME280;74611;53.106;8.778;2024-03-07T01:25:29;102969.81;;;1.05;83.42
84413;BME280;74611;53.106;8.778;2024-03-07T01:28:00;102975.75;;;1.10;82.84
84413;BME280;74611;53.106;8.778;2024-03-07T01:30:25;102968.66;;;0.92;83.07
84413;BME280;74611;53.106;8.778;2024-03-07T01:32:54;102969.25;;;0.80;83.39
84413;BME280;74611;53.106;8.778;2024-03-07T01:35:19;102968.00;;;0.87;83.59
84413;BME280;74611;53.106;8.778;2024-03-07T01:37:45;102965.94;;;0.94;83.30
84413;BME280;74611;53.106;8.778;2024-03-07T01:42:38;102960.31;;;1.01;82.96
84413;BME280;74611;53.106;8.778;2024-03-07T01:45:04;102963.25;;;0.95;82.49
84413;BME280;74611;53.106;8.778;2024-03-07T01:47:30;102966.44;;;0.83;83.08
84413;BME280;74611;53.106;8.778;2024-03-07T01:49:56;102958.50;;;0.64;83.85
84413;BME280;74611;53.106;8.778;2024-03-07T01:52:21;102967.19;;;0.87;83.45
84413;BME280;74611;53.106;8.778;2024-03-07T01:54:48;102965.75;;;0.80;83.14
84413;BME280;74611;53.106;8.778;2024-03-07T01:57:15;102957.56;;;0.65;83.79
84413;BME280;74611;53.106;8.778;2024-03-07T01:59:43;102959.97;;;0.71;82.60
84413;BME280;74611;53.106;8.778;2024-03-07T02:02:09;102963.38;;;0.73;83.07
84413;BME280;74611;53.106;8.778;2024-03-07T02:04:34;102972.09;;;0.75;83.22
84413;BME280;74611;53.106;8.778;2024-03-07T02:07:00;102958.81;;;0.77;83.06
84413;BME280;74611;53.106;8.778;2024-03-07T02:09:26;102955.38;;;0.56;84.07
84413;BME280;74611;53.106;8.778;2024-03-07T02:11:55;102960.41;;;0.61;83.89
84413;BME280;74611;53.106;8.778;2024-03-07T02:14:21;102951.22;;;0.51;84.45
84413;BME280;74611;53.106;8.778;2024-03-07T02:16:47;102940.38;;;0.57;84.37
84413;BME280;74611;53.106;8.778;2024-03-07T02:19:15;102959.44;;;0.63;83.80
84413;BME280;74611;53.106;8.778;2024-03-07T02:21:41;102954.31;;;0.60;84.05
84413;BME280;74611;53.106;8.778;2024-03-07T02:24:07;102956.22;;;0.57;84.05
84413;BME280;74611;53.106;8.778;2024-03-07T02:26:34;102957.78;;;0.61;84.41
84413;BME280;74611;53.106;8.778;2024-03-07T02:28:59;102964.06;;;0.58;84.95
84413;BME280;74611;53.106;8.778;2024-03-07T02:31:25;102956.88;;;0.62;85.10
84413;BME280;74611;53.106;8.778;2024-03-07T02:34:01;102965.50;;;0.65;84.63
84413;BME280;74611;53.106;8.778;2024-03-07T02:36:27;102951.94;;;0.54;85.90
84413;BME280;74611;53.106;8.778;2024-03-07T02:38:53;102950.81;;;0.60;85.49
84413;BME280;74611;53.106;8.778;2024-03-07T02:41:19;102943.44;;;0.48;87.32
84413;BME280;74611;53.106;8.778;2024-03-07T02:43:45;102946.38;;;0.60;85.71
84413;BME280;74611;53.106;8.778;2024-03-07T02:46:10;102954.50;;;0.56;87.05
84413;BME280;74611;53.106;8.778;2024-03-07T02:48:37;102950.69;;;0.63;85.69
84413;BME280;74611;53.106;8.778;2024-03-07T02:51:04;102954.03;;;0.66;85.74
84413;BME280;74611;53.106;8.778;2024-03-07T02:53:33;102948.25;;;0.58;89.16
84413;BME280;74611;53.106;8.778;2024-03-07T02:55:59;102958.50;;;0.64;86.21
84413;BME280;74611;53.106;8.778;2024-03-07T02:58:24;102953.06;;;0.67;86.62
84413;BME280;74611;53.106;8.778;2024-03-07T03:00:59;102951.66;;;0.60;87.91
84413;BME280;74611;53.106;8.778;2024-03-07T03:03:29;102956.25;;;0.75;84.97
84413;BME280;74611;53.106;8.778;2024-03-07T03:06:00;102949.81;;;0.81;85.98
84413;BME280;74611;53.106;8.778;2024-03-07T03:08:26;102944.16;;;0.70;89.36
84413;BME280;74611;53.106;8.778;2024-03-07T03:16:05;102940.97;;;0.82;87.29
84413;BME280;74611;53.106;8.778;2024-03-07T03:18:33;102933.56;;;0.90;85.04
84413;BME280;74611;53.106;8.778;2024-03-07T03:21:02;102931.78;;;0.91;85.67
84413;BME280;74611;53.106;8.778;2024-03-07T03:23:28;102925.84;;;0.86;86.98
84413;BME280;74611;53.106;8.778;2024-03-07T03:25:55;102930.06;;;0.90;85.28
84413;BME280;74611;53.106;8.778;2024-03-07T03:28:21;102930.00;;;0.91;86.68
84413;BME280;74611;53.106;8.778;2024-03-07T03:30:48;102924.06;;;0.86;88.32
84413;BME280;74611;53.106;8.778;2024-03-07T03:33:14;102923.13;;;0.87;86.80
84413;BME280;74611;53.106;8.778;2024-03-07T03:35:40;102923.44;;;1.00;86.04
84413;BME280;74611;53.106;8.778;2024-03-07T03:38:07;102923.69;;;0.94;87.61
84413;BME280;74611;53.106;8.778;2024-03-07T03:40:34;102923.78;;;0.92;89.07
84413;BME280;74611;53.106;8.778;2024-03-07T03:43:00;102921.28;;;0.89;90.44
84413;BME280;74611;53.106;8.778;2024-03-07T03:45:26;102937.41;;;1.02;85.03
84413;BME280;74611;53.106;8.778;2024-03-07T03:47:52;102932.75;;;1.07;84.83
84413;BME280;74611;53.106;8.778;2024-03-07T03:50:18;102921.63;;;1.00;90.35
84413;BME280;74611;53.106;8.778;2024-03-07T03:52:44;102926.63;;;1.06;85.74
84413;BME280;74611;53.106;8.778;2024-03-07T03:55:10;102923.91;;;1.08;86.57
84413;BME280;74611;53.106;8.778;2024-03-07T03:57:41;102924.69;;;1.10;87.33
84413;BME280;74611;53.106;8.778;2024-03-07T04:00:08;102922.19;;;1.07;88.96
84413;BME280;74611;53.106;8.778;2024-03-07T04:02:46;102922.28;;;1.05;90.79
84413;BME280;74611;53.106;8.778;2024-03-07T04:05:15;102920.28;;;1.10;87.41
84413;BME280;74611;53.106;8.778;2024-03-07T04:07:41;102916.91;;;1.07;90.56
84413;BME280;74611;53.106;8.778;2024-03-07T04:10:07;102916.56;;;1.14;86.08
84413;BME280;74611;53.106;8.778;2024-03-07T04:12:34;102919.06;;;1.17;87.90
84413;BME280;74611;53.106;8.778;2024-03-07T04:15:00;102918.91;;;1.20;85.36
84413;BME280;74611;53.106;8.778;2024-03-07T04:17:26;102914.34;;;1.24;88.87
84413;BME280;74611;53.106;8.778;2024-03-07T04:19:52;102913.63;;;1.20;87.73
84413;BME280;74611;53.106;8.778;2024-03-07T04:22:17;102923.88;;;1.26;85.38
84413;BME280;74611;53.106;8.778;2024-03-07T04:24:47;102917.03;;;1.22;90.41
84413;BME280;74611;53.106;8.778;2024-03-07T04:27:19;102923.97;;;1.25;87.07
84413;BME280;74611;53.106;8.778;2024-03-07T04:29:45;102927.38;;;1.27;86.04
84413;BME280;74611;53.106;8.778;2024-03-07T04:32:13;102929.09;;;1.28;89.07
84413;BME280;74611;53.106;8.778;2024-03-07T04:34:39;102927.25;;;1.30;90.67
84413;BME280;74611;53.106;8.778;2024-03-07T04:37:05;102924.53;;;1.31;89.00
84413;BME280;74611;53.106;8.778;2024-03-07T04:39:31;102930.50;;;1.35;86.36
84413;BME280;74611;53.106;8.778;2024-03-07T04:42:01;102926.84;;;1.37;88.70
84413;BME280;74611;53.106;8.778;2024-03-07T04:44:30;102919.00;;;1.36;90.82
84413;BME280;74611;53.106;8.778;2024-03-07T04:46:59;102923.44;;;1.35;89.41
84413;BME280;74611;53.106;8.778;2024-03-07T04:49:29;102929.59;;;1.36;85.60
84413;BME280;74611;53.106;8.778;2024-03-07T04:51:57;102937.50;;;1.36;87.74
84413;BME280;74611;53.106;8.778;2024-03-07T04:54:24;102926.63;;;1.42;91.46
84413;BME280;74611;53.106;8.778;2024-03-07T04:56:51;102933.66;;;1.43;89.30
84413;BME280;74611;53.106;8.778;2024-03-07T04:59:17;102934.50;;;1.43;87.68
84413;BME280;74611;53.106;8.778;2024-03-07T05:01:44;102934.34;;;1.46;86.25
84413;BME280;74611;53.106;8.778;2024-03-07T05:06:45;102931.56;;;1.49;89.80
84413;BME280;74611;53.106;8.778;2024-03-07T05:09:13;102935.91;;;1.50;86.97
84413;BME280;74611;53.106;8.778;2024-03-07T05:11:49;102934.03;;;1.52;89.82
84413;BME280;74611;53.106;8.778;2024-03-07T05:14:17;102933.34;;;1.49;91.54
84413;BME280;74611;53.106;8.778;2024-03-07T05:16:43;102933.25;;;1.50;89.73
84413;BME280;74611;53.106;8.778;2024-03-07T05:19:09;102941.97;;;1.52;87.47
84413;BME280;74611;53.106;8.778;2024-03-07T05:21:35;102943.69;;;1.53;87.29
84413;BME280;74611;53.106;8.778;2024-03-07T05:24:06;102945.16;;;1.59;85.09
84413;BME280;74611;53.106;8.778;2024-03-07T05:26:34;102948.84;;;1.57;88.08
84413;BME280;74611;53.106;8.778;2024-03-07T05:29:08;102942.59;;;1.58;86.76
84413;BME280;74611;53.106;8.778;2024-03-07T05:31:38;102939.03;;;1.59;87.77
84413;BME280;74611;53.106;8.778;2024-03-07T05:34:09;102939.97;;;1.58;86.60
84413;BME280;74611;53.106;8.778;2024-03-07T05:36:35;102934.53;;;1.61;86.70
84413;BME280;74611;53.106;8.778;2024-03-07T05:39:02;102938.75;;;1.65;87.20
84413;BME280;74611;53.106;8.778;2024-03-07T05:41:36;102933.69;;;1.60;89.72
84413;BME280;74611;53.106;8.778;2024-03-07T05:44:02;102932.72;;;1.61;88.79
84413;BME280;74611;53.106;8.778;2024-03-07T05:46:28;102939.81;;;1.61;88.27
84413;BME280;74611;53.106;8.778;2024-03-07T05:48:53;102932.44;;;1.67;88.84
84413;BME280;74611;53.106;8.778;2024-03-07T05:51:22;102937.66;;;1.69;89.20
84413;BME280;74611;53.106;8.778;2024-03-07T05:53:49;102929.56;;;1.72;86.30
84413;BME280;74611;53.106;8.778;2024-03-07T05:56:15;102935.56;;;1.75;88.18
84413;BME280;74611;53.106;8.778;2024-03-07T05:58:40;102935.63;;;1.74;87.48
84413;BME280;74611;53.106;8.778;2024-03-07T06:01:06;102930.28;;;1.75;85.85
84413;BME280;74611;53.106;8.778;2024-03-07T06:03:34;102927.47;;;1.78;86.14
84413;BME280;74611;53.106;8.778;2024-03-07T06:05:59;102930.13;;;1.78;85.00
84413;BME280;74611;53.106;8.778;2024-03-07T06:08:25;102931.59;;;1.84;86.06
84413;BME280;74611;53.106;8.778;2024-03-07T06:10:51;102933.38;;;1.83;85.60
84413;BME280;74611;53.106;8.778;2024-03-07T06:13:16;102935.09;;;1.84;84.57
84413;BME280;74611;53.106;8.778;2024-03-07T06:15:44;102936.66;;;1.88;87.46
84413;BME280;74611;53.106;8.778;2024-03-07T06:18:10;102933.22;;;1.86;85.10
84413;BME280;74611;53.106;8.778;2024-03-07T06:20:36;102935.78;;;1.88;86.23
84413;BME280;74611;53.106;8.778;2024-03-07T06:23:03;102937.50;;;1.89;83.53
84413;BME280;74611;53.106;8.778;2024-03-07T06:25:34;102941.63;;;1.94;86.77
84413;BME280;74611;53.106;8.778;2024-03-07T06:28:04;102933.53;;;1.97;88.98
84413;BME280;74611;53.106;8.778;2024-03-07T06:30:40;102937.09;;;1.96;88.84
84413;BME280;74611;53.106;8.778;2024-03-07T06:33:08;102934.31;;;1.99;87.98
84413;BME280;74611;53.106;8.778;2024-03-07T06:35:35;102933.53;;;1.97;85.67
84413;BME280;74611;53.106;8.778;2024-03-07T06:38:11;102935.97;;;2.02;85.99
84413;BME280;74611;53.106;8.778;2024-03-07T06:40:38;102940.25;;;2.04;87.00
84413;BME280;74611;53.106;8.778;2024-03-07T06:43:09;102939.28;;;2.05;85.69
84413;BME280;74611;53.106;8.778;2024-03-07T06:45:38;102940.16;;;2.06;86.73
84413;BME280;74611;53.106;8.778;2024-03-07T06:48:07;102944.13;;;2.14;90.18
84413;BME280;74611;53.106;8.778;2024-03-07T06:50:37;102939.84;;;2.12;87.77
84413;BME280;74611;53.106;8.778;2024-03-07T06:53:03;102941.56;;;2.13;87.37
84413;BME280;74611;53.106;8.778;2024-03-07T06:55:32;102937.03;;;2.15;87.40
84413;BME280;74611;53.106;8.778;2024-03-07T06:58:08;102936.03;;;2.17;86.44
84413;BME280;74611;53.106;8.778;2024-03-07T07:00:35;102936.56;;;2.24;88.99
84413;BME280;74611;53.106;8.778;2024-03-07T07:03:01;102933.84;;;2.25;88.39
84413;BME280;74611;53.106;8.778;2024-03-07T07:05:30;102929.94;;;2.33;89.53
84413;BME280;74611;53.106;8.778;2024-03-07T07:07:55;102940.00;;;2.26;86.58
84413;BME280;74611;53.106;8.778;2024-03-07T07:10:21;102941.78;;;2.25;85.14
84413;BME280;74611;53.106;8.778;2024-03-07T07:12:50;102932.31;;;2.37;89.22
84413;BME280;74611;53.106;8.778;2024-03-07T07:15:18;102934.13;;;2.37;87.72
84413;BME280;74611;53.106;8.778;2024-03-07T07:17:44;102925.09;;;2.41;88.95
84413;BME280;74611;53.106;8.778;2024-03-07T07:20:16;102938.94;;;2.46;89.34
84413;BME280;74611;53.106;8.778;2024-03-07T07:22:44;102932.78;;;2.45;87.99
84413;BME280;74611;53.106;8.778;2024-03-07T07:25:12;102935.50;;;2.44;86.47
84413;BME280;74611;53.106;8.778;2024-03-07T07:27:43;102936.13;;;2.49;86.27
84413;BME280;74611;53.106;8.778;2024-03-07T07:30:13;102936.56;;;2.57;88.31
84413;BME280;74611;53.106;8.778;2024-03-07T07:32:40;102933.91;;;2.57;87.73
84413;BME280;74611;53.106;8.778;2024-03-07T07:35:07;102931.09;;;2.60;87.43
84413;BME280;74611;53.106;8.778;2024-03-07T07:37:35;102935.38;;;2.62;86.96
84413;BME280;74611;53.106;8.778;2024-03-07T07:40:03;102930.78;;;2.66;86.83
84413;BME280;74611;53.106;8.778;2024-03-07T07:42:29;102936.84;;;2.68;85.88
84413;BME280;74611;53.106;8.778;2024-03-07T07:44:54;102925.50;;;2.81;89.12
84413;BME280;74611;53.106;8.778;2024-03-07T07:47:20;102930.19;;;2.76;85.99
84413;BME280;74611;53.106;8.778;2024-03-07T07:49:45;102921.94;;;2.82;87.38
84413;BME280;74611;53.106;8.778;2024-03-07T07:52:11;102922.19;;;2.93;89.76
84413;BME280;74611;53.106;8.778;2024-03-07T07:54:42;102919.56;;;2.93;88.86
84413;BME280;74611;53.106;8.778;2024-03-07T07:57:08;102919.63;;;2.92;87.06
84413;BME280;74611;53.106;8.778;2024-03-07T07:59:34;102917.66;;;2.95;86.95
84413;BME280;74611;53.106;8.778;2024-03-07T08:02:02;102918.34;;;2.99;86.29
84413;BME280;74611;53.106;8.778;2024-03-07T08:04:33;102921.66;;;3.02;85.94
84413;BME280;74611;53.106;8.778;2024-03-07T08:06:59;102916.38;;;3.02;84.23
84413;BME280;74611;53.106;8.778;2024-03-07T08:09:25;102919.47;;;3.11;86.83
84413;BME280;74611;53.106;8.778;2024-03-07T08:11:51;102916.97;;;3.23;87.80
84413;BME280;74611;53.106;8.778;2024-03-07T08:14:17;102909.69;;;3.27;87.52
84413;BME280;74611;53.106;8.778;2024-03-07T08:16:43;102910.72;;;3.24;84.79
84413;BME280;74611;53.106;8.778;2024-03-07T08:19:09;102910.28;;;3.32;85.42
84413;BME280;74611;53.106;8.778;2024-03-07T08:21:36;102912.06;;;3.47;89.18
84413;BME280;74611;53.106;8.778;2024-03-07T08:24:03;102909.91;;;3.53;88.06
84413;BME280;74611;53.106;8.778;2024-03-07T08:26:36;102920.53;;;3.53;86.78
84413;BME280;74611;53.106;8.778;2024-03-07T08:29:02;102908.03;;;3.55;86.43
84413;BME280;74611;53.106;8.778;2024-03-07T08:31:28;102909.97;;;3.67;86.53
84413;BME280;74611;53.106;8.778;2024-03-07T08:33:54;102913.31;;;3.85;87.47
84413;BME280;74611;53.106;8.778;2024-03-07T08:36:19;102909.47;;;3.91;87.58
84413;BME280;74611;53.106;8.778;2024-03-07T08:38:45;102918.59;;;4.01;87.03
84413;BME280;74611;53.106;8.778;2024-03-07T08:41:11;102916.47;;;4.21;86.65
84413;BME280;74611;53.106;8.778;2024-03-07T08:43:37;102901.56;;;4.33;86.76
84413;BME280;74611;53.106;8.778;2024-03-07T08:46:03;102902.81;;;4.70;87.66
84413;BME280;74611;53.106;8.778;2024-03-07T08:48:28;102901.56;;;4.61;85.17
84413;BME280;74611;53.106;8.778;2024-03-07T08:50:54;102908.59;;;4.62;84.28
84413;BME280;74611;53.106;8.778;2024-03-07T08:53:20;102905.94;;;4.76;84.70
84413;BME280;74611;53.106;8.778;2024-03-07T08:55:47;102901.56;;;4.89;84.23
84413;BME280;74611;53.106;8.778;2024-03-07T08:58:13;102903.25;;;5.04;84.33
84413;BME280;74611;53.106;8.778;2024-03-07T09:00:39;102902.16;;;5.07;83.87
84413;BME280;74611;53.106;8.778;2024-03-07T09:03:05;102896.06;;;5.19;84.46
84413;BME280;74611;53.106;8.778;2024-03-07T09:05:34;102899.75;;;5.30;84.78
84413;BME280;74611;53.106;8.778;2024-03-07T09:08:00;102899.03;;;5.41;84.09
84413;BME280;74611;53.106;8.778;2024-03-07T09:10:27;102895.56;;;5.53;85.14
84413;BME280;74611;53.106;8.778;2024-03-07T09:12:56;102898.78;;;5.58;84.26
84413;BME280;74611;53.106;8.778;2024-03-07T09:15:22;102898.06;;;5.69;84.88
84413;BME280;74611;53.106;8.778;2024-03-07T09:17:48;102897.41;;;5.65;83.28
84413;BME280;74611;53.106;8.778;2024-03-07T09:20:14;102900.72;;;5.69;83.67
84413;BME280;74611;53.106;8.778;2024-03-07T09:22:43;102891.81;;;5.82;84.36
84413;BME280;74611;53.106;8.778;2024-03-07T09:25:10;102896.84;;;5.87;83.06
84413;BME280;74611;53.106;8.778;2024-03-07T09:27:38;102902.50;;;5.95;82.94
84413;BME280;74611;53.106;8.778;2024-03-07T09:30:07;102897.38;;;5.92;82.01
84413;BME280;74611;53.106;8.778;2024-03-07T09:32:41;102898.16;;;6.06;83.51
84413;BME280;74611;53.106;8.778;2024-03-07T09:35:10;102898.34;;;5.91;82.08
84413;BME280;74611;53.106;8.778;2024-03-07T09:37:40;102889.09;;;6.09;81.84
84413;BME280;74611;53.106;8.778;2024-03-07T09:40:07;102892.28;;;6.27;84.02
84413;BME280;74611;53.106;8.778;2024-03-07T09:42:34;102899.97;;;6.19;81.49
84413;BME280;74611;53.106;8.778;2024-03-07T09:45:04;102899.84;;;6.20;81.61
84413;BME280;74611;53.106;8.778;2024-03-07T09:47:31;102901.56;;;6.34;83.91
84413;BME280;74611;53.106;8.778;2024-03-07T09:49:57;102902.75;;;6.30;80.59
84413;BME280;74611;53.106;8.778;2024-03-07T09:52:23;102903.50;;;6.32;82.81
84413;BME280;74611;53.106;8.778;2024-03-07T09:54:51;102907.44;;;6.39;82.68
84413;BME280;74611;53.106;8.778;2024-03-07T09:57:18;102905.94;;;6.47;83.57
84413;BME280;74611;53.106;8.778;2024-03-07T09:59:46;102909.66;;;6.45;82.10
84413;BME280;74611;53.106;8.778;2024-03-07T10:02:13;102908.81;;;6.44;84.03
84413;BME280;74611;53.106;8.778;2024-03-07T10:04:43;102909.25;;;6.38;80.87
84413;BME280;74611;53.106;8.778;2024-03-07T10:07:11;102920.00;;;6.37;82.17
84413;BME280;74611;53.106;8.778;2024-03-07T10:09:39;102912.66;;;6.28;80.30
84413;BME280;74611;53.106;8.778;2024-03-07T10:12:06;102916.69;;;6.33;80.04
84413;BME280;74611;53.106;8.778;2024-03-07T10:14:35;102907.41;;;6.51;83.60
84413;BME280;74611;53.106;8.778;2024-03-07T10:17:03;102914.38;;;6.41;79.55
84413;BME280;74611;53.106;8.778;2024-03-07T10:19:29;102913.72;;;6.38;79.82
84413;BME280;74611;53.106;8.778;2024-03-07T10:21:59;102915.22;;;6.54;79.78
84413;BME280;74611;53.106;8.778;2024-03-07T10:24:30;102916.16;;;6.53;81.47
84413;BME280;74611;53.106;8.778;2024-03-07T10:26:58;102912.00;;;6.62;83.12
84413;BME280;74611;53.106;8.778;2024-03-07T10:29:25;102921.38;;;6.30;80.12
84413;BME280;74611;53.106;8.778;2024-03-07T10:31:50;102911.25;;;6.47;80.12
84413;BME280;74611;53.106;8.778;2024-03-07T10:34:16;102911.38;;;6.58;81.49
84413;BME280;74611;53.106;8.778;2024-03-07T10:36:43;102911.69;;;6.54;82.22
84413;BME280;74611;53.106;8.778;2024-03-07T10:39:09;102912.72;;;6.64;82.28
84413;BME280;74611;53.106;8.778;2024-03-07T10:41:46;102914.03;;;6.58;81.15
84413;BME280;74611;53.106;8.778;2024-03-07T10:44:32;102913.47;;;6.66;82.54
84413;BME280;74611;53.106;8.778;2024-03-07T10:47:08;102909.44;;;6.60;80.93
84413;BME280;74611;53.106;8.778;2024-03-07T10:49:38;102912.13;;;6.48;78.19
84413;BME280;74611;53.106;8.778;2024-03-07T10:52:20;102908.88;;;6.68;81.26
84413;BME280;74611;53.106;8.778;2024-03-07T10:55:04;102911.44;;;6.57;76.77
84413;BME280;74611;53.106;8.778;2024-03-07T10:57:52;102907.41;;;6.64;80.39
84413;BME280;74611;53.106;8.778;2024-03-07T11:00:30;102905.56;;;6.77;80.97
84413;BME280;74611;53.106;8.778;2024-03-07T11:03:03;102913.38;;;6.67;77.77
84413;BME280;74611;53.106;8.778;2024-03-07T11:05:33;102905.38;;;6.55;76.86
84413;BME280;74611;53.106;8.778;2024-03-07T11:08:00;102901.75;;;6.68;81.62
84413;BME280;74611;53.106;8.778;2024-03-07T11:10:30;102908.47;;;6.74;78.84
84413;BME280;74611;53.106;8.778;2024-03-07T11:12:57;102902.56;;;6.81;79.55
84413;BME280;74611;53.106;8.778;2024-03-07T11:15:25;102892.88;;;6.80;79.23
84413;BME280;74611;53.106;8.778;2024-03-07T11:17:53;102903.53;;;6.93;76.63
84413;BME280;74611;53.106;8.778;2024-03-07T11:22:46;102903.81;;;6.52;73.85
84413;BME280;74611;53.106;8.778;2024-03-07T11:25:12;102895.06;;;6.99;81.43
84413;BME280;74611;53.106;8.778;2024-03-07T11:27:38;102892.06;;;7.04;76.61
84413;BME280;74611;53.106;8.778;2024-03-07T11:30:06;102891.47;;;7.00;80.57
84413;BME280;74611;53.106;8.778;2024-03-07T11:32:38;102902.88;;;6.90;74.88
84413;BME280;74611;53.106;8.778;2024-03-07T11:35:33;102900.25;;;6.64;79.26
84413;BME280;74611;53.106;8.778;2024-03-07T11:38:02;102894.88;;;6.90;80.91
84413;BME280;74611;53.106;8.778;2024-03-07T11:43:00;102895.22;;;6.72;77.25
84413;BME280;74611;53.106;8.778;2024-03-07T11:45:32;102900.31;;;6.88;80.69
84413;BME280;74611;53.106;8.778;2024-03-07T11:48:17;102890.75;;;6.73;78.13
84413;BME280;74611;53.106;8.778;2024-03-07T11:50:46;102879.28;;;6.96;82.14
84413;BME280;74611;53.106;8.778;2024-03-07T11:53:13;102885.59;;;6.95;81.25
84413;BME280;74611;53.106;8.778;2024-03-07T11:55:39;102884.25;;;6.77;78.47
84413;BME280;74611;53.106;8.778;2024-03-07T12:00:45;102889.06;;;6.72;78.18
84413;BME280;74611;53.106;8.778;2024-03-07T12:03:12;102883.06;;;6.81;79.53
84413;BME280;74611;53.106;8.778;2024-03-07T12:05:44;102883.78;;;6.34;75.56
84413;BME280;74611;53.106;8.778;2024-03-07T12:08:11;102873.16;;;6.70;80.50
84413;BME280;74611;53.106;8.778;2024-03-07T12:10:41;102879.56;;;6.68;76.46
84413;BME280;74611;53.106;8.778;2024-03-07T12:13:10;102876.16;;;6.66;79.19
84413;BME280;74611;53.106;8.778;2024-03-07T12:15:37;102872.84;;;6.75;80.48
84413;BME280;74611;53.106;8.778;2024-03-07T12:18:04;102865.09;;;6.72;78.44
84413;BME280;74611;53.106;8.778;2024-03-07T12:20:40;102859.84;;;6.70;79.78
84413;BME280;74611;53.106;8.778;2024-03-07T12:23:07;102862.50;;;6.70;77.28
84413;BME280;74611;53.106;8.778;2024-03-07T12:25:37;102856.31;;;6.70;79.16
84413;BME280;74611;53.106;8.778;2024-03-07T12:33:50;102852.72;;;6.95;81.57
84413;BME280;74611;53.106;8.778;2024-03-07T12:36:16;102846.44;;;6.96;79.55
84413;BME280;74611;53.106;8.778;2024-03-07T12:38:42;102843.06;;;6.81;79.95
84413;BME280;74611;53.106;8.778;2024-03-07T12:41:10;102848.81;;;6.88;76.07
84413;BME280;74611;53.106;8.778;2024-03-07T12:43:40;102851.44;;;6.64;75.50
84413;BME280;74611;53.106;8.778;2024-03-07T12:46:12;102837.00;;;7.03;80.90
84413;BME280;74611;53.106;8.778;2024-03-07T12:48:39;102832.94;;;7.10;81.44
84413;BME280;74611;53.106;8.778;2024-03-07T12:51:04;102836.47;;;7.10;79.95
84413;BME280;74611;53.106;8.778;2024-03-07T12:53:30;102832.47;;;7.16;76.33
84413;BME280;74611;53.106;8.778;2024-03-07T12:55:57;102830.34;;;6.97;77.65
84413;BME280;74611;53.106;8.778;2024-03-07T12:58:23;102822.13;;;7.00;79.75
84413;BME280;74611;53.106;8.778;2024-03-07T13:00:54;102828.94;;;6.92;77.48
84413;BME280;74611;53.106;8.778;2024-03-07T13:03:24;102826.81;;;6.97;75.27
84413;BME280;74611;53.106;8.778;2024-03-07T13:05:56;102829.00;;;7.03;78.84
84413;BME280;74611;53.106;8.778;2024-03-07T13:08:26;102822.94;;;7.01;75.04
84413;BME280;74611;53.106;8.778;2024-03-07T13:10:54;102815.75;;;6.90;77.58
84413;BME280;74611;53.106;8.778;2024-03-07T13:13:21;102815.13;;;7.10;80.44
84413;BME280;74611;53.106;8.778;2024-03-07T13:15:46;102813.00;;;7.03;78.17
84413;BME280;74611;53.106;8.778;2024-03-07T13:18:13;102807.25;;;6.85;77.23
84413;BME280;74611;53.106;8.778;2024-03-07T13:20:39;102805.75;;;7.05;80.75
84413;BME280;74611;53.106;8.778;2024-03-07T13:23:05;102803.44;;;7.00;78.98
84413;BME280;74611;53.106;8.778;2024-03-07T13:25:32;102804.25;;;7.13;78.74
84413;BME280;74611;53.106;8.778;2024-03-07T13:30:26;102800.00;;;6.98;75.08
84413;BME280;74611;53.106;8.778;2024-03-07T13:32:56;102793.50;;;7.02;79.98
84413;BME280;74611;53.106;8.778;2024-03-07T13:35:23;102800.19;;;7.08;75.84
84413;BME280;74611;53.106;8.778;2024-03-07T13:37:54;102795.88;;;6.94;77.63